sensor_id;sensor_type;location;lat;lon;timestamp;P1;durP1;ratioP1;P2;durP2;ratioP2
45039;SDS011;30778;53.574;7.770;2023-08-17T00:02:12;3.85;;;1.05;;
45039;SDS011;30778;53.574;7.770;2023-08-17T00:04:38;2.65;;;0.75;;
45039;SDS011;30778;53.574;7.770;2023-08-17T00:07:05;2.55;;;0.70;;
45039;SDS011;30778;53.574;7.770;2023-08-17T00:09:31;4.63;;;0.82;;
45039;SDS011;30778;53.574;7.770;2023-08-17T00:11:57;2.10;;;0.68;;
45039;SDS011;30778;53.574;7.770;2023-08-17T00:14:22;4.85;;;0.80;;
45039;SDS011;30778;53.574;7.770;2023-08-17T00:16:51;4.30;;;0.38;;
45039;SDS011;30778;53.574;7.770;2023-08-17T00:19:16;3.58;;;0.60;;
45039;SDS011;30778;53.574;7.770;2023-08-17T00:21:44;2.47;;;0.70;;
45039;SDS011;30778;53.574;7.770;2023-08-17T00:24:10;5.18;;;0.63;;
45039;SDS011;30778;53.574;7.770;2023-08-17T00:26:35;2.55;;;1.67;;
45039;SDS011;30778;53.574;7.770;2023-08-17T00:29:01;7.15;;;1.15;;
45039;SDS011;30778;53.574;7.770;2023-08-17T00:31:26;4.72;;;0.82;;
45039;SDS011;30778;53.574;7.770;2023-08-17T00:33:51;4.00;;;0.63;;
45039;SDS011;30778;53.574;7.770;2023-08-17T00:36:17;3.08;;;0.50;;
45039;SDS011;30778;53.574;7.770;2023-08-17T00:38:42;3.47;;;1.00;;
45039;SDS011;30778;53.574;7.770;2023-08-17T00:41:08;1.85;;;0.95;;
45039;SDS011;30778;53.574;7.770;2023-08-17T00:43:33;5.93;;;0.80;;
45039;SDS011;30778;53.574;7.770;2023-08-17T00:45:59;5.22;;;0.95;;
45039;SDS011;30778;53.574;7.770;2023-08-17T00:48:25;2.08;;;0.65;;
45039;SDS011;30778;53.574;7.770;2023-08-17T00:50:53;4.57;;;0.63;;
45039;SDS011;30778;53.574;7.770;2023-08-17T00:53:20;7.55;;;1.23;;
45039;SDS011;30778;53.574;7.770;2023-08-17T00:55:49;4.53;;;0.90;;
45039;SDS011;30778;53.574;7.770;2023-08-17T00:58:17;4.57;;;1.10;;
45039;SDS011;30778;53.574;7.770;2023-08-17T01:00:43;4.40;;;0.95;;
45039;SDS011;30778;53.574;7.770;2023-08-17T01:03:08;5.75;;;1.60;;
45039;SDS011;30778;53.574;7.770;2023-08-17T01:05:34;3.58;;;1.20;;
45039;SDS011;30778;53.574;7.770;2023-08-17T01:08:00;6.07;;;1.25;;
45039;SDS011;30778;53.574;7.770;2023-08-17T01:10:29;3.75;;;0.98;;
45039;SDS011;30778;53.574;7.770;2023-08-17T01:15:40;5.97;;;1.77;;
45039;SDS011;30778;53.574;7.770;2023-08-17T01:18:23;4.00;;;0.80;;
45039;SDS011;30778;53.574;7.770;2023-08-17T01:20:54;7.20;;;1.00;;
45039;SDS011;30778;53.574;7.770;2023-08-17T01:23:21;1.67;;;0.50;;
45039;SDS011;30778;53.574;7.770;2023-08-17T01:25:47;10.18;;;0.77;;
45039;SDS011;30778;53.574;7.770;2023-08-17T01:28:13;2.90;;;1.10;;
45039;SDS011;30778;53.574;7.770;2023-08-17T01:30:40;3.08;;;0.77;;
45039;SDS011;30778;53.574;7.770;2023-08-17T01:33:12;3.67;;;0.85;;
45039;SDS011;30778;53.574;7.770;2023-08-17T01:35:46;3.78;;;0.77;;
45039;SDS011;30778;53.574;7.770;2023-08-17T01:38:17;2.22;;;0.50;;
45039;SDS011;30778;53.574;7.770;2023-08-17T01:40:47;3.35;;;0.45;;
45039;SDS011;30778;53.574;7.770;2023-08-17T01:43:15;1.65;;;0.55;;
45039;SDS011;30778;53.574;7.770;2023-08-17T01:45:43;1.50;;;0.45;;
45039;SDS011;30778;53.574;7.770;2023-08-17T01:48:11;6.90;;;0.90;;
45039;SDS011;30778;53.574;7.770;2023-08-17T01:50:37;5.40;;;1.10;;
45039;SDS011;30778;53.574;7.770;2023-08-17T01:53:02;5.00;;;1.80;;
45039;SDS011;30778;53.574;7.770;2023-08-17T01:55:28;4.28;;;0.43;;
45039;SDS011;30778;53.574;7.770;2023-08-17T01:57:53;1.70;;;0.40;;
45039;SDS011;30778;53.574;7.770;2023-08-17T02:00:19;4.25;;;0.65;;
45039;SDS011;30778;53.574;7.770;2023-08-17T02:02:44;5.57;;;0.50;;
45039;SDS011;30778;53.574;7.770;2023-08-17T02:05:10;6.55;;;0.70;;
45039;SDS011;30778;53.574;7.770;2023-08-17T02:07:36;4.95;;;0.77;;
45039;SDS011;30778;53.574;7.770;2023-08-17T02:10:01;4.43;;;1.17;;
45039;SDS011;30778;53.574;7.770;2023-08-17T02:12:27;2.38;;;0.60;;
45039;SDS011;30778;53.574;7.770;2023-08-17T02:14:52;2.35;;;0.95;;
45039;SDS011;30778;53.574;7.770;2023-08-17T02:17:18;4.07;;;0.95;;
45039;SDS011;30778;53.574;7.770;2023-08-17T02:19:46;8.20;;;0.63;;
45039;SDS011;30778;53.574;7.770;2023-08-17T02:22:13;2.45;;;0.40;;
45039;SDS011;30778;53.574;7.770;2023-08-17T02:24:39;5.40;;;0.63;;
45039;SDS011;30778;53.574;7.770;2023-08-17T02:27:05;10.45;;;0.88;;
45039;SDS011;30778;53.574;7.770;2023-08-17T02:29:31;3.47;;;0.73;;
45039;SDS011;30778;53.574;7.770;2023-08-17T02:31:58;2.80;;;0.85;;
45039;SDS011;30778;53.574;7.770;2023-08-17T02:34:25;5.50;;;0.43;;
45039;SDS011;30778;53.574;7.770;2023-08-17T02:36:51;4.32;;;0.50;;
45039;SDS011;30778;53.574;7.770;2023-08-17T02:39:16;2.33;;;0.43;;
45039;SDS011;30778;53.574;7.770;2023-08-17T02:41:42;3.78;;;0.80;;
45039;SDS011;30778;53.574;7.770;2023-08-17T02:44:09;14.77;;;1.27;;
45039;SDS011;30778;53.574;7.770;2023-08-17T02:46:35;8.40;;;0.95;;
45039;SDS011;30778;53.574;7.770;2023-08-17T02:49:04;3.92;;;0.50;;
45039;SDS011;30778;53.574;7.770;2023-08-17T02:51:29;8.65;;;1.02;;
45039;SDS011;30778;53.574;7.770;2023-08-17T02:53:55;2.30;;;0.45;;
45039;SDS011;30778;53.574;7.770;2023-08-17T02:56:20;6.38;;;0.50;;
45039;SDS011;30778;53.574;7.770;2023-08-17T02:58:46;3.40;;;0.90;;
45039;SDS011;30778;53.574;7.770;2023-08-17T03:01:12;3.40;;;0.93;;
45039;SDS011;30778;53.574;7.770;2023-08-17T03:03:37;3.90;;;0.70;;
45039;SDS011;30778;53.574;7.770;2023-08-17T03:06:03;5.90;;;0.70;;
45039;SDS011;30778;53.574;7.770;2023-08-17T03:08:28;6.28;;;1.15;;
45039;SDS011;30778;53.574;7.770;2023-08-17T03:10:54;6.78;;;1.45;;
45039;SDS011;30778;53.574;7.770;2023-08-17T03:13:19;4.28;;;1.08;;
45039;SDS011;30778;53.574;7.770;2023-08-17T03:15:46;3.00;;;1.27;;
45039;SDS011;30778;53.574;7.770;2023-08-17T03:18:11;5.93;;;0.85;;
45039;SDS011;30778;53.574;7.770;2023-08-17T03:20:37;3.78;;;1.00;;
45039;SDS011;30778;53.574;7.770;2023-08-17T03:23:03;3.03;;;0.80;;
45039;SDS011;30778;53.574;7.770;2023-08-17T03:25:33;2.13;;;0.50;;
45039;SDS011;30778;53.574;7.770;2023-08-17T03:28:00;3.28;;;0.57;;
45039;SDS011;30778;53.574;7.770;2023-08-17T03:30:26;8.38;;;1.13;;
45039;SDS011;30778;53.574;7.770;2023-08-17T03:32:51;5.13;;;0.88;;
45039;SDS011;30778;53.574;7.770;2023-08-17T03:35:17;2.67;;;0.38;;
45039;SDS011;30778;53.574;7.770;2023-08-17T03:37:42;6.80;;;0.57;;
45039;SDS011;30778;53.574;7.770;2023-08-17T03:40:09;4.65;;;0.77;;
45039;SDS011;30778;53.574;7.770;2023-08-17T03:42:35;4.88;;;0.50;;
45039;SDS011;30778;53.574;7.770;2023-08-17T03:45:01;1.48;;;0.50;;
45039;SDS011;30778;53.574;7.770;2023-08-17T03:47:27;9.23;;;0.52;;
45039;SDS011;30778;53.574;7.770;2023-08-17T03:49:52;4.47;;;0.45;;
45039;SDS011;30778;53.574;7.770;2023-08-17T03:52:18;1.17;;;0.30;;
45039;SDS011;30778;53.574;7.770;2023-08-17T03:54:43;3.17;;;0.80;;
45039;SDS011;30778;53.574;7.770;2023-08-17T03:57:09;4.53;;;0.57;;
45039;SDS011;30778;53.574;7.770;2023-08-17T03:59:35;2.78;;;0.43;;
45039;SDS011;30778;53.574;7.770;2023-08-17T04:02:01;3.95;;;0.80;;
45039;SDS011;30778;53.574;7.770;2023-08-17T04:04:26;6.18;;;0.85;;
45039;SDS011;30778;53.574;7.770;2023-08-17T04:06:53;2.65;;;0.70;;
45039;SDS011;30778;53.574;7.770;2023-08-17T04:09:19;3.03;;;0.60;;
45039;SDS011;30778;53.574;7.770;2023-08-17T04:11:44;3.53;;;0.47;;
45039;SDS011;30778;53.574;7.770;2023-08-17T04:14:10;2.63;;;0.50;;
45039;SDS011;30778;53.574;7.770;2023-08-17T04:16:39;2.63;;;0.60;;
45039;SDS011;30778;53.574;7.770;2023-08-17T04:19:05;6.05;;;0.88;;
45039;SDS011;30778;53.574;7.770;2023-08-17T04:21:30;7.70;;;0.93;;
45039;SDS011;30778;53.574;7.770;2023-08-17T04:23:56;5.20;;;0.57;;
45039;SDS011;30778;53.574;7.770;2023-08-17T04:26:21;2.92;;;0.73;;
45039;SDS011;30778;53.574;7.770;2023-08-17T04:28:47;3.70;;;0.95;;
45039;SDS011;30778;53.574;7.770;2023-08-17T04:31:15;3.53;;;0.40;;
45039;SDS011;30778;53.574;7.770;2023-08-17T04:33:43;5.80;;;0.77;;
45039;SDS011;30778;53.574;7.770;2023-08-17T04:36:08;3.13;;;0.57;;
45039;SDS011;30778;53.574;7.770;2023-08-17T04:38:34;3.42;;;0.40;;
45039;SDS011;30778;53.574;7.770;2023-08-17T04:41:00;4.35;;;0.40;;
45039;SDS011;30778;53.574;7.770;2023-08-17T04:43:25;1.88;;;0.40;;
45039;SDS011;30778;53.574;7.770;2023-08-17T04:45:51;2.58;;;0.30;;
45039;SDS011;30778;53.574;7.770;2023-08-17T04:48:17;4.95;;;0.50;;
45039;SDS011;30778;53.574;7.770;2023-08-17T04:50:45;2.08;;;0.45;;
45039;SDS011;30778;53.574;7.770;2023-08-17T04:53:10;5.97;;;0.60;;
45039;SDS011;30778;53.574;7.770;2023-08-17T04:55:36;2.80;;;0.45;;
45039;SDS011;30778;53.574;7.770;2023-08-17T04:58:01;0.90;;;0.40;;
45039;SDS011;30778;53.574;7.770;2023-08-17T05:00:28;1.20;;;0.28;;
45039;SDS011;30778;53.574;7.770;2023-08-17T05:02:54;3.03;;;0.30;;
45039;SDS011;30778;53.574;7.770;2023-08-17T05:05:23;3.22;;;0.52;;
45039;SDS011;30778;53.574;7.770;2023-08-17T05:07:49;5.07;;;0.30;;
45039;SDS011;30778;53.574;7.770;2023-08-17T05:10:16;2.38;;;0.50;;
45039;SDS011;30778;53.574;7.770;2023-08-17T05:12:42;3.90;;;0.20;;
45039;SDS011;30778;53.574;7.770;2023-08-17T05:15:09;2.88;;;0.30;;
45039;SDS011;30778;53.574;7.770;2023-08-17T05:17:35;2.10;;;0.65;;
45039;SDS011;30778;53.574;7.770;2023-08-17T05:20:02;2.85;;;0.40;;
45039;SDS011;30778;53.574;7.770;2023-08-17T05:22:29;4.07;;;0.40;;
45039;SDS011;30778;53.574;7.770;2023-08-17T05:24:54;5.38;;;0.70;;
45039;SDS011;30778;53.574;7.770;2023-08-17T05:27:20;5.15;;;0.20;;
45039;SDS011;30778;53.574;7.770;2023-08-17T05:29:47;2.33;;;0.38;;
45039;SDS011;30778;53.574;7.770;2023-08-17T05:32:13;4.53;;;0.43;;
45039;SDS011;30778;53.574;7.770;2023-08-17T05:34:40;1.67;;;0.57;;
45039;SDS011;30778;53.574;7.770;2023-08-17T05:37:06;2.30;;;0.40;;
45039;SDS011;30778;53.574;7.770;2023-08-17T05:39:32;3.30;;;0.30;;
45039;SDS011;30778;53.574;7.770;2023-08-17T05:41:58;1.55;;;0.35;;
45039;SDS011;30778;53.574;7.770;2023-08-17T05:44:23;1.00;;;0.63;;
45039;SDS011;30778;53.574;7.770;2023-08-17T05:46:49;2.10;;;0.20;;
45039;SDS011;30778;53.574;7.770;2023-08-17T05:49:14;3.33;;;0.20;;
45039;SDS011;30778;53.574;7.770;2023-08-17T05:51:40;2.38;;;0.68;;
45039;SDS011;30778;53.574;7.770;2023-08-17T05:54:05;4.90;;;0.60;;
45039;SDS011;30778;53.574;7.770;2023-08-17T05:56:32;4.95;;;0.20;;
45039;SDS011;30778;53.574;7.770;2023-08-17T05:58:58;2.10;;;0.20;;
45039;SDS011;30778;53.574;7.770;2023-08-17T06:01:23;0.40;;;0.10;;
45039;SDS011;30778;53.574;7.770;2023-08-17T06:03:49;4.18;;;0.17;;
45039;SDS011;30778;53.574;7.770;2023-08-17T06:06:15;0.98;;;0.35;;
45039;SDS011;30778;53.574;7.770;2023-08-17T06:08:40;1.98;;;0.35;;
45039;SDS011;30778;53.574;7.770;2023-08-17T06:11:06;4.82;;;0.30;;
45039;SDS011;30778;53.574;7.770;2023-08-17T06:13:32;0.70;;;0.10;;
45039;SDS011;30778;53.574;7.770;2023-08-17T06:15:57;2.55;;;0.30;;
45039;SDS011;30778;53.574;7.770;2023-08-17T06:18:23;2.88;;;0.38;;
45039;SDS011;30778;53.574;7.770;2023-08-17T06:20:48;4.75;;;0.30;;
45039;SDS011;30778;53.574;7.770;2023-08-17T06:23:17;4.03;;;0.30;;
45039;SDS011;30778;53.574;7.770;2023-08-17T06:25:43;2.47;;;0.20;;
45039;SDS011;30778;53.574;7.770;2023-08-17T06:28:08;2.58;;;0.55;;
45039;SDS011;30778;53.574;7.770;2023-08-17T06:30:33;1.55;;;0.20;;
45039;SDS011;30778;53.574;7.770;2023-08-17T06:32:59;4.22;;;0.35;;
45039;SDS011;30778;53.574;7.770;2023-08-17T06:35:25;2.20;;;0.20;;
45039;SDS011;30778;53.574;7.770;2023-08-17T06:37:52;1.85;;;0.22;;
45039;SDS011;30778;53.574;7.770;2023-08-17T06:40:21;1.75;;;0.22;;
45039;SDS011;30778;53.574;7.770;2023-08-17T06:42:46;2.45;;;0.20;;
45039;SDS011;30778;53.574;7.770;2023-08-17T06:45:12;1.75;;;0.30;;
45039;SDS011;30778;53.574;7.770;2023-08-17T06:47:37;0.90;;;0.20;;
45039;SDS011;30778;53.574;7.770;2023-08-17T06:50:03;3.70;;;0.25;;
45039;SDS011;30778;53.574;7.770;2023-08-17T06:52:29;4.22;;;0.43;;
45039;SDS011;30778;53.574;7.770;2023-08-17T06:54:55;2.20;;;0.30;;
45039;SDS011;30778;53.574;7.770;2023-08-17T06:57:20;0.90;;;0.17;;
45039;SDS011;30778;53.574;7.770;2023-08-17T06:59:47;1.02;;;0.20;;
45039;SDS011;30778;53.574;7.770;2023-08-17T07:02:12;4.45;;;0.52;;
45039;SDS011;30778;53.574;7.770;2023-08-17T07:04:38;2.42;;;0.17;;
45039;SDS011;30778;53.574;7.770;2023-08-17T07:07:03;0.73;;;0.20;;
45039;SDS011;30778;53.574;7.770;2023-08-17T07:09:29;4.80;;;0.30;;
45039;SDS011;30778;53.574;7.770;2023-08-17T07:11:55;4.32;;;0.20;;
45039;SDS011;30778;53.574;7.770;2023-08-17T07:14:20;3.78;;;0.20;;
45039;SDS011;30778;53.574;7.770;2023-08-17T07:16:46;2.65;;;0.20;;
45039;SDS011;30778;53.574;7.770;2023-08-17T07:19:12;2.60;;;0.20;;
45039;SDS011;30778;53.574;7.770;2023-08-17T07:21:38;5.22;;;0.25;;
45039;SDS011;30778;53.574;7.770;2023-08-17T07:24:13;3.22;;;0.40;;
45039;SDS011;30778;53.574;7.770;2023-08-17T07:26:40;2.58;;;0.35;;
45039;SDS011;30778;53.574;7.770;2023-08-17T07:29:06;1.45;;;0.20;;
45039;SDS011;30778;53.574;7.770;2023-08-17T07:31:31;1.15;;;0.20;;
45039;SDS011;30778;53.574;7.770;2023-08-17T07:33:59;1.27;;;0.10;;
45039;SDS011;30778;53.574;7.770;2023-08-17T07:36:25;2.05;;;0.20;;
45039;SDS011;30778;53.574;7.770;2023-08-17T07:38:50;1.92;;;0.10;;
45039;SDS011;30778;53.574;7.770;2023-08-17T07:41:16;1.42;;;0.30;;
45039;SDS011;30778;53.574;7.770;2023-08-17T07:43:41;1.25;;;0.30;;
45039;SDS011;30778;53.574;7.770;2023-08-17T07:46:07;4.78;;;0.17;;
45039;SDS011;30778;53.574;7.770;2023-08-17T07:48:32;2.22;;;0.10;;
45039;SDS011;30778;53.574;7.770;2023-08-17T07:50:59;3.83;;;0.10;;
45039;SDS011;30778;53.574;7.770;2023-08-17T07:53:28;2.53;;;0.20;;
45039;SDS011;30778;53.574;7.770;2023-08-17T07:55:53;2.10;;;0.30;;
45039;SDS011;30778;53.574;7.770;2023-08-17T07:58:19;3.35;;;0.35;;
45039;SDS011;30778;53.574;7.770;2023-08-17T08:00:45;7.97;;;0.20;;
45039;SDS011;30778;53.574;7.770;2023-08-17T08:03:10;1.70;;;0.10;;
45039;SDS011;30778;53.574;7.770;2023-08-17T08:05:36;3.42;;;0.38;;
45039;SDS011;30778;53.574;7.770;2023-08-17T08:08:01;0.95;;;0.50;;
45039;SDS011;30778;53.574;7.770;2023-08-17T08:10:27;1.48;;;0.60;;
45039;SDS011;30778;53.574;7.770;2023-08-17T08:12:53;1.23;;;0.40;;
45039;SDS011;30778;53.574;7.770;2023-08-17T08:15:19;5.22;;;0.20;;
45039;SDS011;30778;53.574;7.770;2023-08-17T08:17:44;2.17;;;0.20;;
45039;SDS011;30778;53.574;7.770;2023-08-17T08:20:10;1.30;;;0.20;;
45039;SDS011;30778;53.574;7.770;2023-08-17T08:22:36;0.70;;;0.10;;
45039;SDS011;30778;53.574;7.770;2023-08-17T08:25:01;6.65;;;0.30;;
45039;SDS011;30778;53.574;7.770;2023-08-17T08:27:27;1.48;;;0.75;;
45039;SDS011;30778;53.574;7.770;2023-08-17T08:29:52;1.58;;;0.22;;
45039;SDS011;30778;53.574;7.770;2023-08-17T08:32:18;3.13;;;0.10;;
45039;SDS011;30778;53.574;7.770;2023-08-17T08:34:43;0.93;;;0.10;;
45039;SDS011;30778;53.574;7.770;2023-08-17T08:37:09;4.68;;;0.20;;
45039;SDS011;30778;53.574;7.770;2023-08-17T08:39:47;2.50;;;0.10;;
45039;SDS011;30778;53.574;7.770;2023-08-17T08:42:17;1.33;;;0.63;;
45039;SDS011;30778;53.574;7.770;2023-08-17T08:44:43;4.13;;;0.47;;
45039;SDS011;30778;53.574;7.770;2023-08-17T08:47:10;3.22;;;0.20;;
45039;SDS011;30778;53.574;7.770;2023-08-17T08:49:40;2.35;;;0.20;;
45039;SDS011;30778;53.574;7.770;2023-08-17T08:52:17;5.47;;;0.30;;
45039;SDS011;30778;53.574;7.770;2023-08-17T08:54:48;5.32;;;0.40;;
45039;SDS011;30778;53.574;7.770;2023-08-17T08:57:15;2.92;;;0.20;;
45039;SDS011;30778;53.574;7.770;2023-08-17T08:59:42;1.13;;;0.30;;
45039;SDS011;30778;53.574;7.770;2023-08-17T09:02:15;3.65;;;0.30;;
45039;SDS011;30778;53.574;7.770;2023-08-17T09:04:44;2.60;;;0.20;;
45039;SDS011;30778;53.574;7.770;2023-08-17T09:07:10;3.08;;;0.32;;
45039;SDS011;30778;53.574;7.770;2023-08-17T09:09:37;3.45;;;0.35;;
45039;SDS011;30778;53.574;7.770;2023-08-17T09:12:03;3.00;;;0.32;;
45039;SDS011;30778;53.574;7.770;2023-08-17T09:14:32;4.38;;;0.40;;
45039;SDS011;30778;53.574;7.770;2023-08-17T09:16:58;1.75;;;0.30;;
45039;SDS011;30778;53.574;7.770;2023-08-17T09:19:24;2.05;;;0.47;;
45039;SDS011;30778;53.574;7.770;2023-08-17T09:21:50;2.50;;;0.40;;
45039;SDS011;30778;53.574;7.770;2023-08-17T09:24:16;4.22;;;0.45;;
45039;SDS011;30778;53.574;7.770;2023-08-17T09:26:41;5.65;;;0.38;;
45039;SDS011;30778;53.574;7.770;2023-08-17T09:29:17;1.83;;;0.35;;
45039;SDS011;30778;53.574;7.770;2023-08-17T09:31:43;5.18;;;1.10;;
45039;SDS011;30778;53.574;7.770;2023-08-17T09:34:09;3.45;;;0.98;;
45039;SDS011;30778;53.574;7.770;2023-08-17T09:36:38;4.03;;;0.70;;
45039;SDS011;30778;53.574;7.770;2023-08-17T09:39:04;3.40;;;0.30;;
45039;SDS011;30778;53.574;7.770;2023-08-17T09:41:30;4.75;;;0.55;;
45039;SDS011;30778;53.574;7.770;2023-08-17T09:43:55;2.40;;;0.82;;
45039;SDS011;30778;53.574;7.770;2023-08-17T09:46:21;2.65;;;0.68;;
45039;SDS011;30778;53.574;7.770;2023-08-17T09:48:47;2.67;;;0.40;;
45039;SDS011;30778;53.574;7.770;2023-08-17T09:51:16;5.88;;;0.30;;
45039;SDS011;30778;53.574;7.770;2023-08-17T09:53:41;2.55;;;0.60;;
45039;SDS011;30778;53.574;7.770;2023-08-17T09:56:07;0.75;;;0.20;;
45039;SDS011;30778;53.574;7.770;2023-08-17T09:58:36;2.90;;;0.50;;
45039;SDS011;30778;53.574;7.770;2023-08-17T10:01:05;1.65;;;0.30;;
45039;SDS011;30778;53.574;7.770;2023-08-17T10:03:33;2.70;;;0.70;;
45039;SDS011;30778;53.574;7.770;2023-08-17T10:06:04;0.80;;;0.20;;
45039;SDS011;30778;53.574;7.770;2023-08-17T10:08:33;1.27;;;0.25;;
45039;SDS011;30778;53.574;7.770;2023-08-17T10:11:01;0.93;;;0.32;;
45039;SDS011;30778;53.574;7.770;2023-08-17T10:13:42;3.50;;;0.68;;
45039;SDS011;30778;53.574;7.770;2023-08-17T10:16:16;4.93;;;0.63;;
45039;SDS011;30778;53.574;7.770;2023-08-17T10:19:05;4.72;;;0.57;;
45039;SDS011;30778;53.574;7.770;2023-08-17T10:25:02;1.58;;;0.85;;
45039;SDS011;30778;53.574;7.770;2023-08-17T10:27:30;2.65;;;0.52;;
45039;SDS011;30778;53.574;7.770;2023-08-17T10:29:55;5.47;;;1.95;;
45039;SDS011;30778;53.574;7.770;2023-08-17T10:32:22;4.13;;;0.88;;
45039;SDS011;30778;53.574;7.770;2023-08-17T10:34:49;2.55;;;0.57;;
45039;SDS011;30778;53.574;7.770;2023-08-17T10:37:17;3.90;;;0.88;;
45039;SDS011;30778;53.574;7.770;2023-08-17T10:39:47;2.53;;;0.70;;
45039;SDS011;30778;53.574;7.770;2023-08-17T10:42:14;8.45;;;0.70;;
45039;SDS011;30778;53.574;7.770;2023-08-17T10:44:54;3.47;;;0.65;;
45039;SDS011;30778;53.574;7.770;2023-08-17T10:47:26;1.88;;;0.63;;
45039;SDS011;30778;53.574;7.770;2023-08-17T10:55:03;7.43;;;0.65;;
45039;SDS011;30778;53.574;7.770;2023-08-17T11:00:07;4.65;;;1.00;;
45039;SDS011;30778;53.574;7.770;2023-08-17T11:02:40;3.20;;;0.95;;
45039;SDS011;30778;53.574;7.770;2023-08-17T11:05:09;1.65;;;0.50;;
45039;SDS011;30778;53.574;7.770;2023-08-17T11:07:40;3.55;;;1.00;;
45039;SDS011;30778;53.574;7.770;2023-08-17T11:10:11;4.00;;;0.70;;
45039;SDS011;30778;53.574;7.770;2023-08-17T11:12:45;6.10;;;0.57;;
45039;SDS011;30778;53.574;7.770;2023-08-17T11:15:11;6.57;;;1.20;;
45039;SDS011;30778;53.574;7.770;2023-08-17T11:17:36;1.98;;;0.50;;
45039;SDS011;30778;53.574;7.770;2023-08-17T11:20:03;10.13;;;0.73;;
45039;SDS011;30778;53.574;7.770;2023-08-17T11:22:29;2.60;;;0.88;;
45039;SDS011;30778;53.574;7.770;2023-08-17T11:24:54;4.78;;;1.00;;
45039;SDS011;30778;53.574;7.770;2023-08-17T11:27:20;3.50;;;0.50;;
45039;SDS011;30778;53.574;7.770;2023-08-17T11:29:46;5.07;;;1.00;;
45039;SDS011;30778;53.574;7.770;2023-08-17T11:32:12;1.92;;;0.75;;
45039;SDS011;30778;53.574;7.770;2023-08-17T11:34:40;1.90;;;0.80;;
45039;SDS011;30778;53.574;7.770;2023-08-17T11:37:06;4.78;;;0.80;;
45039;SDS011;30778;53.574;7.770;2023-08-17T11:39:35;2.15;;;0.70;;
45039;SDS011;30778;53.574;7.770;2023-08-17T11:42:01;4.05;;;0.95;;
45039;SDS011;30778;53.574;7.770;2023-08-17T11:44:27;4.55;;;1.67;;
45039;SDS011;30778;53.574;7.770;2023-08-17T11:46:53;8.30;;;1.10;;
45039;SDS011;30778;53.574;7.770;2023-08-17T11:49:18;2.97;;;0.70;;
45039;SDS011;30778;53.574;7.770;2023-08-17T11:51:44;1.55;;;0.80;;
45039;SDS011;30778;53.574;7.770;2023-08-17T11:54:10;3.10;;;0.90;;
45039;SDS011;30778;53.574;7.770;2023-08-17T11:56:37;3.40;;;1.38;;
45039;SDS011;30778;53.574;7.770;2023-08-17T11:59:09;3.17;;;0.88;;
45039;SDS011;30778;53.574;7.770;2023-08-17T12:01:44;2.78;;;1.45;;
45039;SDS011;30778;53.574;7.770;2023-08-17T12:04:10;1.77;;;0.93;;
45039;SDS011;30778;53.574;7.770;2023-08-17T12:06:41;3.83;;;1.17;;
45039;SDS011;30778;53.574;7.770;2023-08-17T12:09:10;2.00;;;1.33;;
45039;SDS011;30778;53.574;7.770;2023-08-17T12:11:39;4.20;;;1.63;;
45039;SDS011;30778;53.574;7.770;2023-08-17T12:14:08;2.53;;;1.20;;
45039;SDS011;30778;53.574;7.770;2023-08-17T12:16:44;4.18;;;0.73;;
45039;SDS011;30778;53.574;7.770;2023-08-17T12:19:12;2.72;;;0.98;;
45039;SDS011;30778;53.574;7.770;2023-08-17T12:21:37;3.67;;;0.98;;
45039;SDS011;30778;53.574;7.770;2023-08-17T12:24:08;5.85;;;1.23;;
45039;SDS011;30778;53.574;7.770;2023-08-17T12:26:34;3.55;;;1.00;;
45039;SDS011;30778;53.574;7.770;2023-08-17T12:29:00;6.03;;;1.27;;
45039;SDS011;30778;53.574;7.770;2023-08-17T12:31:30;1.58;;;1.02;;
45039;SDS011;30778;53.574;7.770;2023-08-17T12:33:56;5.57;;;0.80;;
45039;SDS011;30778;53.574;7.770;2023-08-17T12:36:22;3.65;;;0.85;;
45039;SDS011;30778;53.574;7.770;2023-08-17T12:38:47;4.57;;;0.90;;
45039;SDS011;30778;53.574;7.770;2023-08-17T12:41:13;3.80;;;1.05;;
45039;SDS011;30778;53.574;7.770;2023-08-17T12:43:38;3.50;;;0.77;;
45039;SDS011;30778;53.574;7.770;2023-08-17T12:46:04;1.83;;;1.25;;
45039;SDS011;30778;53.574;7.770;2023-08-17T12:48:30;2.45;;;1.25;;
45039;SDS011;30778;53.574;7.770;2023-08-17T12:50:55;2.15;;;1.05;;
45039;SDS011;30778;53.574;7.770;2023-08-17T12:53:21;3.83;;;0.90;;
45039;SDS011;30778;53.574;7.770;2023-08-17T12:55:47;3.63;;;1.17;;
45039;SDS011;30778;53.574;7.770;2023-08-17T12:58:13;5.55;;;1.30;;
45039;SDS011;30778;53.574;7.770;2023-08-17T13:00:39;2.47;;;1.33;;
45039;SDS011;30778;53.574;7.770;2023-08-17T13:03:04;4.32;;;1.33;;
45039;SDS011;30778;53.574;7.770;2023-08-17T13:05:30;5.65;;;1.17;;
45039;SDS011;30778;53.574;7.770;2023-08-17T13:07:56;3.63;;;1.02;;
45039;SDS011;30778;53.574;7.770;2023-08-17T13:10:22;5.47;;;1.42;;
45039;SDS011;30778;53.574;7.770;2023-08-17T13:12:47;3.67;;;1.20;;
45039;SDS011;30778;53.574;7.770;2023-08-17T13:15:13;2.22;;;1.23;;
45039;SDS011;30778;53.574;7.770;2023-08-17T13:17:38;6.55;;;1.55;;
45039;SDS011;30778;53.574;7.770;2023-08-17T13:20:04;2.85;;;2.13;;
45039;SDS011;30778;53.574;7.770;2023-08-17T13:22:31;5.32;;;1.63;;
45039;SDS011;30778;53.574;7.770;2023-08-17T13:24:57;3.17;;;1.20;;
45039;SDS011;30778;53.574;7.770;2023-08-17T13:27:23;2.60;;;0.82;;
45039;SDS011;30778;53.574;7.770;2023-08-17T13:29:48;3.60;;;1.10;;
45039;SDS011;30778;53.574;7.770;2023-08-17T13:32:14;4.18;;;1.35;;
45039;SDS011;30778;53.574;7.770;2023-08-17T13:34:39;4.43;;;1.15;;
45039;SDS011;30778;53.574;7.770;2023-08-17T13:37:05;5.32;;;1.17;;
45039;SDS011;30778;53.574;7.770;2023-08-17T13:39:30;6.55;;;1.05;;
45039;SDS011;30778;53.574;7.770;2023-08-17T13:41:57;3.20;;;1.50;;
45039;SDS011;30778;53.574;7.770;2023-08-17T13:44:23;2.60;;;1.35;;
45039;SDS011;30778;53.574;7.770;2023-08-17T13:46:48;4.93;;;1.75;;
45039;SDS011;30778;53.574;7.770;2023-08-17T13:49:14;5.78;;;2.15;;
45039;SDS011;30778;53.574;7.770;2023-08-17T13:51:39;3.03;;;1.35;;
45039;SDS011;30778;53.574;7.770;2023-08-17T13:54:05;2.58;;;1.23;;
45039;SDS011;30778;53.574;7.770;2023-08-17T13:56:30;6.50;;;1.75;;
45039;SDS011;30778;53.574;7.770;2023-08-17T13:58:56;5.50;;;1.58;;
45039;SDS011;30778;53.574;7.770;2023-08-17T14:01:21;5.43;;;2.03;;
45039;SDS011;30778;53.574;7.770;2023-08-17T14:03:47;3.30;;;1.70;;
45039;SDS011;30778;53.574;7.770;2023-08-17T14:06:12;7.20;;;1.60;;
45039;SDS011;30778;53.574;7.770;2023-08-17T14:08:38;4.10;;;1.95;;
45039;SDS011;30778;53.574;7.770;2023-08-17T14:11:03;3.20;;;2.00;;
45039;SDS011;30778;53.574;7.770;2023-08-17T14:13:30;4.63;;;2.20;;
45039;SDS011;30778;53.574;7.770;2023-08-17T14:15:55;5.28;;;2.47;;
45039;SDS011;30778;53.574;7.770;2023-08-17T14:18:23;8.68;;;2.17;;
45039;SDS011;30778;53.574;7.770;2023-08-17T14:20:48;4.05;;;1.85;;
45039;SDS011;30778;53.574;7.770;2023-08-17T14:23:14;4.35;;;1.70;;
45039;SDS011;30778;53.574;7.770;2023-08-17T14:25:39;2.55;;;1.63;;
45039;SDS011;30778;53.574;7.770;2023-08-17T14:28:05;2.25;;;1.45;;
45039;SDS011;30778;53.574;7.770;2023-08-17T14:30:32;2.60;;;1.23;;
45039;SDS011;30778;53.574;7.770;2023-08-17T14:32:58;4.28;;;1.60;;
45039;SDS011;30778;53.574;7.770;2023-08-17T14:35:24;3.25;;;1.75;;
45039;SDS011;30778;53.574;7.770;2023-08-17T14:37:49;5.57;;;1.63;;
45039;SDS011;30778;53.574;7.770;2023-08-17T14:40:15;3.05;;;1.50;;
45039;SDS011;30778;53.574;7.770;2023-08-17T14:42:42;6.88;;;1.40;;
45039;SDS011;30778;53.574;7.770;2023-08-17T14:45:08;5.78;;;1.40;;
45039;SDS011;30778;53.574;7.770;2023-08-17T14:47:33;5.60;;;1.90;;
45039;SDS011;30778;53.574;7.770;2023-08-17T14:49:59;3.38;;;2.10;;
45039;SDS011;30778;53.574;7.770;2023-08-17T14:52:25;2.70;;;1.55;;
45039;SDS011;30778;53.574;7.770;2023-08-17T14:54:51;4.38;;;1.75;;
45039;SDS011;30778;53.574;7.770;2023-08-17T14:57:17;5.30;;;1.58;;
45039;SDS011;30778;53.574;7.770;2023-08-17T14:59:42;4.22;;;1.95;;